Time;durP1;ratioP1;P1;durP2;ratioP2;P2;SDS_P1;SDS_P2;PMS_P1;PMS_P2;Temp;Humidity;BMP_temperature;BMP_pressure;BME280_temperature;BME280_humidity;BME280_pressure;Samples;Min_cycle;Max_cycle;Signal;HPM_P1;HPM_P2
2023/05/03 00:02:09;;;;;;;;;;;15.80;99.90;;;;;;4965614;28;20264;-68
2023/05/03 00:04:35;;;;;;;;;;;15.80;99.90;;;;;;4964416;28;20052;-68
2023/05/03 00:07:00;;;;;;;;;;;15.70;99.90;;;;;;4970484;28;20148;-68
2023/05/03 00:09:26;;;;;;;;;;;15.70;99.90;;;;;;4959822;28;20183;-65
2023/05/03 00:11:52;;;;;;;;;;;15.80;99.90;;;;;;4959802;28;20623;-67
2023/05/03 00:14:18;;;;;;;;;;;15.80;99.90;;;;;;4968444;28;20024;-67
2023/05/03 00:16:43;;;;;;;;;;;15.70;99.90;;;;;;4971132;28;20630;-67
2023/05/03 00:19:09;;;;;;;;;;;15.70;99.90;;;;;;4973597;28;19926;-67
2023/05/03 00:21:34;;;;;;;;;;;15.70;99.90;;;;;;4965990;28;20458;-67
2023/05/03 00:24:00;;;;;;;;;;;15.70;99.90;;;;;;4968510;28;19968;-65
2023/05/03 00:26:26;;;;;;;;;;;15.70;99.90;;;;;;4966452;28;20020;-65
2023/05/03 00:28:52;;;;;;;;;;;15.60;99.90;;;;;;4963941;28;19918;-65
2023/05/03 00:31:18;;;;;;;;;;;15.60;99.90;;;;;;4970246;28;19941;-64
2023/05/03 00:33:43;;;;;;;;;;;15.50;99.90;;;;;;4973253;28;19928;-65
2023/05/03 00:36:10;;;;;;;;;;;15.50;99.90;;;;;;4966496;28;19918;-65
2023/05/03 00:38:36;;;;;;;;;;;15.40;99.90;;;;;;4964600;28;20016;-63
2023/05/03 00:41:02;;;;;;;;;;;15.40;99.90;;;;;;4957792;28;21077;-63
2023/05/03 00:43:28;;;;;;;;;;;15.40;99.90;;;;;;4972290;28;20032;-62
2023/05/03 00:45:53;;;;;;;;;;;15.50;99.90;;;;;;4972384;28;20541;-63
2023/05/03 00:48:19;;;;;;;;;;;15.40;99.90;;;;;;4973850;28;20009;-62
2023/05/03 00:50:46;;;;;;;;;;;15.50;99.90;;;;;;4967153;28;19918;-63
2023/05/03 00:53:11;;;;;;;;;;;15.50;99.90;;;;;;4967723;28;19958;-63
2023/05/03 00:55:37;;;;;;;;;;;15.50;99.90;;;;;;4970027;28;19964;-62
2023/05/03 00:58:03;;;;;;;;;;;15.60;99.90;;;;;;4968769;28;20402;-63
2023/05/03 01:00:28;;;;;;;;;;;15.60;99.90;;;;;;4964755;28;19935;-65
2023/05/03 01:02:54;;;;;;;;;;;15.60;99.90;;;;;;4969385;28;20017;-65
2023/05/03 01:05:21;;;;;;;;;;;15.60;99.90;;;;;;4966151;28;19926;-65
2023/05/03 01:07:47;;;;;;;;;;;15.60;99.90;;;;;;4963960;28;19954;-65
2023/05/03 01:10:12;;;;;;;;;;;15.60;99.90;;;;;;4958959;28;20565;-65
2023/05/03 01:12:47;;;;;;;;;;;15.70;99.90;;;;;;4963756;28;19970;-66
2023/05/03 01:15:19;;;;;;;;;;;15.60;99.90;;;;;;4964058;28;19918;-66
2023/05/03 01:17:50;;;;;;;;;;;15.50;99.90;;;;;;4967937;28;20009;-65
2023/05/03 01:20:18;;;;;;;;;;;15.50;99.90;;;;;;4966952;28;19930;-63
2023/05/03 01:22:52;;;;;;;;;;;15.50;99.90;;;;;;4967600;28;19914;-63
2023/05/03 01:25:17;;;;;;;;;;;15.50;99.90;;;;;;4970869;28;19988;-63
2023/05/03 01:27:43;;;;;;;;;;;15.40;99.90;;;;;;4965475;28;21244;-63
2023/05/03 01:30:10;;;;;;;;;;;15.50;99.90;;;;;;4966621;28;19924;-62
2023/05/03 01:32:48;;;;;;;;;;;15.50;99.90;;;;;;4969734;28;19930;-63
2023/05/03 01:35:14;;;;;;;;;;;15.50;99.90;;;;;;4970730;28;20044;-63
2023/05/03 01:37:41;;;;;;;;;;;15.50;99.90;;;;;;4971428;28;20343;-63
2023/05/03 01:40:07;;;;;;;;;;;15.50;99.90;;;;;;4966925;28;21813;-62
2023/05/03 01:42:35;;;;;;;;;;;15.40;99.90;;;;;;4966118;28;19924;-63
2023/05/03 01:45:02;;;;;;;;;;;15.40;99.90;;;;;;4970894;28;19985;-63
2023/05/03 01:47:28;;;;;;;;;;;15.40;99.90;;;;;;4976104;28;20004;-62
2023/05/03 01:49:54;;;;;;;;;;;15.40;99.90;;;;;;4968988;28;20004;-62
2023/05/03 01:52:19;;;;;;;;;;;15.30;99.90;;;;;;4971352;28;20961;-62
2023/05/03 01:54:45;;;;;;;;;;;15.30;99.90;;;;;;4969732;28;19962;-62
2023/05/03 01:57:10;;;;;;;;;;;15.30;99.90;;;;;;4970075;28;20371;-63
2023/05/03 01:59:36;;;;;;;;;;;15.30;99.90;;;;;;4964696;28;19967;-62
2023/05/03 02:02:01;;;;;;;;;;;15.30;99.90;;;;;;4966669;28;19967;-63
2023/05/03 02:04:27;;;;;;;;;;;15.30;99.90;;;;;;4972576;28;20416;-63
2023/05/03 02:06:53;;;;;;;;;;;15.20;99.90;;;;;;4972911;28;19941;-63
2023/05/03 02:09:18;;;;;;;;;;;15.20;99.90;;;;;;4970036;28;19948;-63
2023/05/03 02:11:44;;;;;;;;;;;15.20;99.90;;;;;;4959303;28;19962;-63
2023/05/03 02:14:09;;;;;;;;;;;15.30;99.90;;;;;;4972402;28;19956;-63
2023/05/03 02:16:35;;;;;;;;;;;15.30;99.90;;;;;;4970386;28;19935;-63
2023/05/03 02:19:00;;;;;;;;;;;15.20;99.90;;;;;;4971893;28;19971;-63
2023/05/03 02:21:26;;;;;;;;;;;15.10;99.90;;;;;;4972875;28;19948;-62
2023/05/03 02:23:52;;;;;;;;;;;15.00;99.90;;;;;;4968773;28;20555;-62
2023/05/03 02:26:18;;;;;;;;;;;15.10;99.90;;;;;;4972194;28;20363;-63
2023/05/03 02:28:43;;;;;;;;;;;15.10;99.90;;;;;;4961506;28;19961;-63
2023/05/03 02:31:09;;;;;;;;;;;15.10;99.90;;;;;;4967847;28;19956;-62
2023/05/03 02:33:34;;;;;;;;;;;15.20;99.90;;;;;;4964939;28;19987;-63
2023/05/03 02:36:00;;;;;;;;;;;15.20;99.90;;;;;;4970797;28;20695;-62
2023/05/03 02:38:27;;;;;;;;;;;15.20;99.90;;;;;;4972598;28;19918;-66
2023/05/03 02:40:52;;;;;;;;;;;15.00;99.90;;;;;;4964450;28;20342;-65
2023/05/03 02:43:18;;;;;;;;;;;15.00;99.90;;;;;;4960556;28;19922;-66
2023/05/03 02:45:43;;;;;;;;;;;15.00;99.90;;;;;;4969540;28;20363;-66
2023/05/03 02:48:09;;;;;;;;;;;15.00;99.90;;;;;;4966755;28;19922;-65
2023/05/03 02:50:35;;;;;;;;;;;15.00;99.90;;;;;;4965668;28;20012;-66
2023/05/03 02:53:01;;;;;;;;;;;15.10;99.90;;;;;;4967787;28;19922;-65
2023/05/03 02:55:26;;;;;;;;;;;15.10;99.90;;;;;;4969554;28;20213;-66
2023/05/03 02:57:52;;;;;;;;;;;15.10;99.90;;;;;;4970547;28;19918;-62
2023/05/03 03:00:18;;;;;;;;;;;15.20;99.90;;;;;;4962745;28;19922;-64
2023/05/03 03:02:43;;;;;;;;;;;15.20;99.90;;;;;;4969232;28;19941;-63
2023/05/03 03:05:09;;;;;;;;;;;15.20;99.90;;;;;;4973258;28;19918;-62
2023/05/03 03:07:36;;;;;;;;;;;15.20;99.90;;;;;;4968384;28;19920;-62
2023/05/03 03:10:01;;;;;;;;;;;15.20;99.90;;;;;;4968497;28;19925;-62
2023/05/03 03:12:28;;;;;;;;;;;15.20;99.90;;;;;;4953093;28;19929;-62
2023/05/03 03:14:53;;;;;;;;;;;15.20;99.90;;;;;;4970983;28;19918;-66
2023/05/03 03:17:19;;;;;;;;;;;15.20;99.90;;;;;;4967634;28;19929;-66
2023/05/03 03:19:45;;;;;;;;;;;15.20;99.90;;;;;;4964855;28;19922;-65
2023/05/03 03:22:11;;;;;;;;;;;15.10;99.90;;;;;;4966010;28;20383;-65
2023/05/03 03:24:38;;;;;;;;;;;15.10;99.90;;;;;;4962201;28;21268;-65
2023/05/03 03:27:04;;;;;;;;;;;15.10;99.90;;;;;;4973873;28;19922;-65
2023/05/03 03:29:30;;;;;;;;;;;15.10;99.90;;;;;;4973040;28;19914;-66
2023/05/03 03:31:56;;;;;;;;;;;15.10;99.90;;;;;;4969502;28;19933;-66
2023/05/03 03:34:21;;;;;;;;;;;15.00;99.90;;;;;;4970227;28;19917;-66
2023/05/03 03:36:47;;;;;;;;;;;15.10;99.90;;;;;;4973093;28;19925;-65
2023/05/03 03:39:12;;;;;;;;;;;15.00;99.90;;;;;;4975893;28;19950;-66
2023/05/03 03:41:38;;;;;;;;;;;14.90;99.90;;;;;;4959624;28;19938;-65
2023/05/03 03:44:03;;;;;;;;;;;14.90;99.90;;;;;;4971832;28;22017;-66
2023/05/03 03:46:29;;;;;;;;;;;14.90;99.90;;;;;;4971638;28;20841;-66
2023/05/03 03:48:55;;;;;;;;;;;14.90;99.90;;;;;;4966069;28;20501;-66
2023/05/03 03:51:20;;;;;;;;;;;14.90;99.90;;;;;;4971995;28;20454;-66
2023/05/03 03:53:46;;;;;;;;;;;14.90;99.90;;;;;;4969660;28;19925;-66
2023/05/03 03:56:11;;;;;;;;;;;14.80;99.90;;;;;;4967004;28;19914;-62
2023/05/03 03:58:37;;;;;;;;;;;14.80;99.90;;;;;;4972554;28;20366;-62
2023/05/03 04:01:02;;;;;;;;;;;14.90;99.90;;;;;;4959215;28;19918;-62
2023/05/03 04:03:28;;;;;;;;;;;14.90;99.90;;;;;;4962047;28;19953;-62
2023/05/03 04:05:53;;;;;;;;;;;14.90;99.90;;;;;;4972021;28;19921;-62
2023/05/03 04:08:19;;;;;;;;;;;14.90;99.90;;;;;;4966343;28;20651;-62
2023/05/03 04:10:45;;;;;;;;;;;15.00;99.90;;;;;;4966976;28;19918;-62
2023/05/03 04:13:11;;;;;;;;;;;15.00;99.90;;;;;;4959712;28;20473;-62
2023/05/03 04:15:36;;;;;;;;;;;15.00;99.90;;;;;;4961827;28;20004;-66
2023/05/03 04:18:02;;;;;;;;;;;14.90;99.90;;;;;;4971727;28;19922;-66
2023/05/03 04:20:28;;;;;;;;;;;14.90;99.90;;;;;;4972827;28;19971;-66
2023/05/03 04:22:53;;;;;;;;;;;14.90;99.90;;;;;;4970193;28;20367;-66
2023/05/03 04:25:19;;;;;;;;;;;14.80;99.90;;;;;;4974321;28;19929;-66
2023/05/03 04:27:44;;;;;;;;;;;14.90;99.90;;;;;;4969445;28;19917;-66
2023/05/03 04:30:14;;;;;;;;;;;14.90;99.90;;;;;;4964562;28;19941;-66
2023/05/03 04:32:41;;;;;;;;;;;15.00;99.90;;;;;;4960600;28;19957;-65
2023/05/03 04:35:08;;;;;;;;;;;15.00;99.90;;;;;;4969149;28;19914;-63
2023/05/03 04:37:34;;;;;;;;;;;15.00;99.90;;;;;;4968242;28;20004;-63
2023/05/03 04:39:59;;;;;;;;;;;15.00;99.90;;;;;;4967127;28;20370;-63
2023/05/03 04:42:25;;;;;;;;;;;15.00;99.90;;;;;;4956153;28;19922;-63
2023/05/03 04:44:51;;;;;;;;;;;15.00;99.90;;;;;;4960600;28;19956;-63
2023/05/03 04:47:17;;;;;;;;;;;15.00;99.90;;;;;;4967940;28;20365;-63
2023/05/03 04:49:45;;;;;;;;;;;14.80;99.90;;;;;;4968922;28;19962;-63
2023/05/03 04:52:10;;;;;;;;;;;14.70;99.90;;;;;;4962189;28;19934;-64
2023/05/03 04:54:36;;;;;;;;;;;14.60;99.90;;;;;;4966992;28;19941;-63
2023/05/03 04:57:01;;;;;;;;;;;14.60;99.90;;;;;;4963245;28;19984;-63
2023/05/03 04:59:27;;;;;;;;;;;14.70;99.90;;;;;;4966690;28;20732;-65
2023/05/03 05:01:52;;;;;;;;;;;14.70;99.90;;;;;;4965083;28;20449;-65
2023/05/03 05:04:18;;;;;;;;;;;14.80;99.90;;;;;;4968711;28;20001;-64
2023/05/03 05:06:43;;;;;;;;;;;14.90;99.90;;;;;;4959265;28;19988;-63
2023/05/03 05:09:19;;;;;;;;;;;14.90;99.90;;;;;;4963656;28;19918;-63
2023/05/03 05:11:45;;;;;;;;;;;14.90;99.90;;;;;;4959465;28;21172;-63
2023/05/03 05:14:11;;;;;;;;;;;14.90;99.90;;;;;;4972731;28;19925;-63
2023/05/03 05:16:36;;;;;;;;;;;14.90;99.90;;;;;;4969711;28;19941;-64
2023/05/03 05:19:02;;;;;;;;;;;15.00;99.90;;;;;;4972634;28;20363;-64
2023/05/03 05:21:28;;;;;;;;;;;15.00;99.90;;;;;;4970746;28;20002;-63
2023/05/03 05:23:53;;;;;;;;;;;15.00;99.90;;;;;;4971637;28;19922;-64
2023/05/03 05:26:19;;;;;;;;;;;15.00;99.90;;;;;;4969336;28;19922;-64
2023/05/03 05:28:45;;;;;;;;;;;15.00;99.90;;;;;;4972909;28;21551;-64
2023/05/03 05:31:11;;;;;;;;;;;15.00;99.90;;;;;;4964921;28;20406;-63
2023/05/03 05:33:36;;;;;;;;;;;15.00;99.90;;;;;;4961660;28;19922;-66
2023/05/03 05:36:02;;;;;;;;;;;15.10;99.90;;;;;;4967557;28;20371;-66
2023/05/03 05:38:28;;;;;;;;;;;15.10;99.90;;;;;;4966179;28;20345;-66
2023/05/03 05:40:53;;;;;;;;;;;15.10;99.90;;;;;;4971068;28;19914;-66
2023/05/03 05:43:19;;;;;;;;;;;15.20;99.90;;;;;;4961256;28;20939;-66
2023/05/03 05:45:44;;;;;;;;;;;15.10;99.90;;;;;;4965249;28;20005;-66
2023/05/03 05:48:10;;;;;;;;;;;15.20;99.90;;;;;;4964825;28;19932;-66
2023/05/03 05:50:35;;;;;;;;;;;15.20;99.90;;;;;;4973810;28;20306;-66
2023/05/03 05:53:01;;;;;;;;;;;15.20;99.90;;;;;;4975063;28;20064;-66
2023/05/03 05:55:26;;;;;;;;;;;15.30;99.90;;;;;;4972869;28;19925;-66
2023/05/03 05:57:52;;;;;;;;;;;15.40;99.90;;;;;;4970883;28;19918;-67
2023/05/03 06:00:18;;;;;;;;;;;15.50;99.90;;;;;;4972896;28;19929;-66
2023/05/03 06:02:43;;;;;;;;;;;15.50;99.90;;;;;;4975132;28;19918;-66
2023/05/03 06:05:10;;;;;;;;;;;15.60;99.90;;;;;;4974446;28;19942;-66
2023/05/03 06:07:35;;;;;;;;;;;15.60;99.90;;;;;;4975142;28;20481;-66
2023/05/03 06:10:01;;;;;;;;;;;15.60;99.90;;;;;;4977154;28;20009;-64
2023/05/03 06:12:27;;;;;;;;;;;15.60;99.90;;;;;;4967619;28;19921;-66
2023/05/03 06:14:52;;;;;;;;;;;15.60;99.90;;;;;;4976393;28;19925;-66
2023/05/03 06:17:18;;;;;;;;;;;15.70;99.90;;;;;;4973631;28;19918;-66
2023/05/03 06:19:43;;;;;;;;;;;15.70;99.90;;;;;;4972423;28;19930;-66
2023/05/03 06:22:10;;;;;;;;;;;15.80;99.90;;;;;;4976191;28;19918;-66
2023/05/03 06:24:35;;;;;;;;;;;15.80;99.90;;;;;;4975938;28;19918;-66
2023/05/03 06:27:01;;;;;;;;;;;15.90;99.90;;;;;;4973360;28;20425;-66
2023/05/03 06:29:28;;;;;;;;;;;15.90;99.90;;;;;;4969477;28;19957;-66
2023/05/03 06:31:53;;;;;;;;;;;15.90;99.90;;;;;;4966956;28;19930;-63
2023/05/03 06:34:20;;;;;;;;;;;15.80;99.90;;;;;;4965230;28;20487;-64
2023/05/03 06:36:46;;;;;;;;;;;15.80;99.90;;;;;;4967044;28;19918;-64
2023/05/03 06:39:11;;;;;;;;;;;15.80;99.90;;;;;;4968293;28;19944;-64
2023/05/03 06:41:37;;;;;;;;;;;15.80;99.90;;;;;;4970635;28;19918;-64
2023/05/03 06:44:08;;;;;;;;;;;15.80;99.90;;;;;;4967008;28;19924;-64
2023/05/03 06:46:34;;;;;;;;;;;15.80;99.90;;;;;;4962070;28;20008;-63
2023/05/03 06:48:59;;;;;;;;;;;15.90;99.90;;;;;;4968741;28;20692;-64
2023/05/03 06:51:31;;;;;;;;;;;15.90;99.90;;;;;;4970053;28;20446;-66
2023/05/03 06:53:59;;;;;;;;;;;16.00;99.90;;;;;;4968252;28;19944;-66
2023/05/03 06:56:24;;;;;;;;;;;16.00;99.90;;;;;;4973174;28;20530;-66
2023/05/03 06:58:50;;;;;;;;;;;16.00;99.90;;;;;;4967763;28;20471;-66
2023/05/03 07:01:17;;;;;;;;;;;16.10;99.90;;;;;;4969274;28;20287;-66
2023/05/03 07:03:43;;;;;;;;;;;16.10;99.90;;;;;;4969071;28;19918;-67
2023/05/03 07:06:08;;;;;;;;;;;16.10;99.90;;;;;;4970654;28;19921;-66
2023/05/03 07:08:34;;;;;;;;;;;16.10;99.90;;;;;;4967980;28;20029;-66
2023/05/03 07:11:00;;;;;;;;;;;16.10;99.90;;;;;;4973192;28;19922;-66
2023/05/03 07:13:25;;;;;;;;;;;16.10;99.90;;;;;;4961185;28;19956;-66
2023/05/03 07:15:51;;;;;;;;;;;16.10;99.90;;;;;;4965178;28;19917;-66
2023/05/03 07:18:16;;;;;;;;;;;16.10;99.90;;;;;;4967435;28;19944;-66
2023/05/03 07:20:41;;;;;;;;;;;16.00;99.90;;;;;;4969583;28;20209;-66
2023/05/03 07:23:07;;;;;;;;;;;16.00;99.90;;;;;;4970793;28;20247;-66
2023/05/03 07:25:33;;;;;;;;;;;16.10;99.90;;;;;;4971843;28;19921;-66
2023/05/03 07:27:58;;;;;;;;;;;16.00;99.90;;;;;;4965027;28;19917;-66
2023/05/03 07:30:24;;;;;;;;;;;15.90;99.90;;;;;;4969085;28;20494;-63
2023/05/03 07:32:49;;;;;;;;;;;16.00;99.90;;;;;;4954263;28;20008;-64
2023/05/03 07:35:15;;;;;;;;;;;16.00;99.90;;;;;;4960669;28;20036;-63
2023/05/03 07:37:41;;;;;;;;;;;16.20;99.90;;;;;;4958407;28;19964;-64
2023/05/03 07:40:07;;;;;;;;;;;16.30;99.90;;;;;;4962875;28;19921;-63
2023/05/03 07:42:32;;;;;;;;;;;16.30;99.90;;;;;;4962591;28;20261;-64
2023/05/03 07:44:59;;;;;;;;;;;16.30;99.90;;;;;;4964604;28;20368;-64
2023/05/03 07:47:25;;;;;;;;;;;16.20;99.90;;;;;;4957460;28;20133;-64
2023/05/03 07:49:50;;;;;;;;;;;16.20;99.90;;;;;;4959342;28;20293;-66
2023/05/03 07:52:16;;;;;;;;;;;16.20;99.90;;;;;;4959630;28;19930;-66
2023/05/03 07:54:44;;;;;;;;;;;16.20;99.90;;;;;;4964443;28;20343;-66
2023/05/03 07:57:13;;;;;;;;;;;16.20;99.90;;;;;;4962249;28;19922;-66
2023/05/03 07:59:39;;;;;;;;;;;16.20;99.90;;;;;;4963311;28;19918;-66
2023/05/03 08:02:04;;;;;;;;;;;16.20;99.90;;;;;;4954682;28;19921;-66
2023/05/03 08:04:30;;;;;;;;;;;16.10;99.90;;;;;;4962734;28;19929;-66
2023/05/03 08:06:55;;;;;;;;;;;16.10;99.90;;;;;;4970436;28;20016;-66
2023/05/03 08:09:22;;;;;;;;;;;16.10;99.90;;;;;;4965882;28;19915;-66
2023/05/03 08:11:47;;;;;;;;;;;16.10;99.90;;;;;;4953475;28;20028;-66
2023/05/03 08:14:12;;;;;;;;;;;16.10;99.90;;;;;;4963800;28;19918;-66
2023/05/03 08:16:38;;;;;;;;;;;16.10;99.90;;;;;;4962395;28;19914;-65
2023/05/03 08:19:04;;;;;;;;;;;16.20;99.90;;;;;;4965250;28;19929;-66
2023/05/03 08:21:30;;;;;;;;;;;16.30;99.90;;;;;;4964318;28;19925;-66
2023/05/03 08:23:55;;;;;;;;;;;16.30;99.90;;;;;;4961577;28;20254;-66
2023/05/03 08:26:21;;;;;;;;;;;16.40;99.90;;;;;;4955653;28;20237;-65
2023/05/03 08:28:47;;;;;;;;;;;16.50;99.90;;;;;;4937060;28;20005;-64
2023/05/03 08:31:12;;;;;;;;;;;16.60;99.90;;;;;;4940770;28;20682;-64
2023/05/03 08:33:38;;;;;;;;;;;16.70;99.90;;;;;;4964444;28;20025;-64
2023/05/03 08:36:04;;;;;;;;;;;16.70;99.90;;;;;;4963770;28;19922;-64
2023/05/03 08:38:30;;;;;;;;;;;16.80;99.90;;;;;;4962367;28;19913;-64
2023/05/03 08:40:58;;;;;;;;;;;16.80;99.90;;;;;;4967703;28;20029;-64
2023/05/03 08:43:26;;;;;;;;;;;16.80;99.90;;;;;;4958984;28;19971;-64
2023/05/03 08:45:51;;;;;;;;;;;16.70;99.90;;;;;;4973936;28;20765;-64
2023/05/03 08:48:17;;;;;;;;;;;16.70;99.90;;;;;;4966055;28;19962;-65
2023/05/03 08:50:42;;;;;;;;;;;16.80;99.90;;;;;;4962284;28;19910;-64
2023/05/03 08:53:09;;;;;;;;;;;16.90;99.90;;;;;;4965926;28;19953;-64
2023/05/03 08:55:34;;;;;;;;;;;17.00;99.90;;;;;;4960712;28;19914;-64
2023/05/03 08:58:00;;;;;;;;;;;17.10;99.90;;;;;;4960800;28;19922;-64
2023/05/03 09:00:27;;;;;;;;;;;17.10;99.90;;;;;;4965607;28;19975;-63
2023/05/03 09:02:52;;;;;;;;;;;17.20;99.90;;;;;;4974214;28;20037;-64
2023/05/03 09:05:18;;;;;;;;;;;17.30;99.90;;;;;;4968363;28;20344;-64
2023/05/03 09:08:02;;;;;;;;;;;17.40;99.90;;;;;;4969392;28;20008;-63
2023/05/03 09:10:28;;;;;;;;;;;17.50;99.90;;;;;;4974861;28;19922;-64
2023/05/03 09:12:59;;;;;;;;;;;17.50;99.90;;;;;;4968209;28;19937;-64
2023/05/03 09:15:25;;;;;;;;;;;17.60;99.90;;;;;;4975647;28;19960;-64
2023/05/03 09:18:07;;;;;;;;;;;17.60;99.90;;;;;;4971368;28;19953;-64
2023/05/03 09:20:34;;;;;;;;;;;17.60;99.90;;;;;;4978069;28;20382;-64
2023/05/03 09:23:00;;;;;;;;;;;17.50;99.90;;;;;;4971359;28;20276;-64
2023/05/03 09:25:38;;;;;;;;;;;17.50;99.90;;;;;;4973382;28;19922;-65
2023/05/03 09:28:04;;;;;;;;;;;17.50;99.90;;;;;;4972514;28;19981;-65
2023/05/03 09:30:29;;;;;;;;;;;17.60;99.90;;;;;;4974864;28;20017;-65
2023/05/03 09:32:55;;;;;;;;;;;17.60;99.90;;;;;;5003300;28;20526;-65
2023/05/03 09:35:20;;;;;;;;;;;17.50;99.90;;;;;;4973957;28;19925;-65
2023/05/03 09:37:46;;;;;;;;;;;17.60;99.90;;;;;;4979938;28;20013;-65
2023/05/03 09:40:16;;;;;;;;;;;17.60;99.90;;;;;;4973453;28;19921;-65
2023/05/03 09:43:01;;;;;;;;;;;17.50;99.90;;;;;;4975775;28;20343;-65
2023/05/03 09:45:26;;;;;;;;;;;17.60;99.90;;;;;;4966241;28;19922;-66
2023/05/03 09:47:54;;;;;;;;;;;17.70;99.90;;;;;;4973270;28;19949;-64
2023/05/03 09:50:21;;;;;;;;;;;17.60;99.90;;;;;;4976565;28;19922;-64
2023/05/03 09:52:47;;;;;;;;;;;17.70;99.90;;;;;;4974080;28;19929;-64
2023/05/03 09:55:15;;;;;;;;;;;17.80;99.90;;;;;;4963226;28;19918;-64
2023/05/03 09:57:41;;;;;;;;;;;17.90;99.90;;;;;;4965521;28;20552;-64
2023/05/03 10:00:07;;;;;;;;;;;17.90;99.90;;;;;;4970411;28;19924;-64
2023/05/03 10:02:33;;;;;;;;;;;17.90;99.90;;;;;;4970675;28;19936;-64
2023/05/03 10:04:59;;;;;;;;;;;18.00;99.90;;;;;;4968583;28;20386;-64
2023/05/03 10:07:25;;;;;;;;;;;18.00;99.90;;;;;;4964761;28;20327;-65
2023/05/03 10:09:50;;;;;;;;;;;18.10;99.90;;;;;;4971311;28;19918;-66
2023/05/03 10:12:16;;;;;;;;;;;18.20;99.90;;;;;;4967264;28;20379;-65
2023/05/03 10:14:46;;;;;;;;;;;18.20;99.90;;;;;;4965432;28;19961;-65
2023/05/03 10:17:17;;;;;;;;;;;18.30;99.90;;;;;;4973965;28;20429;-65
2023/05/03 10:19:54;;;;;;;;;;;18.40;99.90;;;;;;4970721;28;19930;-65
2023/05/03 10:22:20;;;;;;;;;;;18.40;99.90;;;;;;4972979;28;19922;-66
2023/05/03 10:25:01;;;;;;;;;;;18.30;99.90;;;;;;4972865;28;19921;-64
2023/05/03 10:27:45;;;;;;;;;;;18.20;99.90;;;;;;4970060;28;19913;-64
2023/05/03 10:30:31;;;;;;;;;;;18.30;99.90;;;;;;4971077;28;20306;-64
2023/05/03 10:32:57;;;;;;;;;;;18.30;99.90;;;;;;4967889;28;19992;-64
2023/05/03 10:35:25;;;;;;;;;;;18.40;99.90;;;;;;4970696;28;19925;-64
2023/05/03 10:37:51;;;;;;;;;;;18.30;99.90;;;;;;4972838;28;19918;-64
2023/05/03 10:40:17;;;;;;;;;;;18.30;99.90;;;;;;4973366;28;20349;-64
2023/05/03 10:42:51;;;;;;;;;;;18.30;99.90;;;;;;4973309;28;19925;-64
2023/05/03 10:45:35;;;;;;;;;;;18.30;99.90;;;;;;4962408;28;19914;-65
2023/05/03 10:48:10;;;;;;;;;;;18.30;99.90;;;;;;4974109;28;20004;-65
2023/05/03 10:50:35;;;;;;;;;;;18.40;99.90;;;;;;4966581;28;20451;-65
2023/05/03 10:53:01;;;;;;;;;;;18.30;99.90;;;;;;4963292;28;19922;-65
2023/05/03 10:55:27;;;;;;;;;;;18.30;99.90;;;;;;4958060;28;19911;-65
2023/05/03 10:57:54;;;;;;;;;;;18.30;99.90;;;;;;4969740;28;19930;-65
2023/05/03 11:00:23;;;;;;;;;;;18.30;99.90;;;;;;4964680;28;19959;-65
2023/05/03 11:03:07;;;;;;;;;;;18.30;99.90;;;;;;4971284;28;19918;-64
2023/05/03 11:05:33;;;;;;;;;;;18.30;99.90;;;;;;4973255;28;20004;-65
2023/05/03 11:08:17;;;;;;;;;;;18.20;99.90;;;;;;4962705;28;19976;-65
2023/05/03 11:10:43;;;;;;;;;;;18.20;99.90;;;;;;4960161;28;19957;-66
2023/05/03 11:13:09;;;;;;;;;;;18.30;99.90;;;;;;4968789;28;20028;-65
2023/05/03 11:15:35;;;;;;;;;;;18.30;99.90;;;;;;4965188;28;19925;-66
2023/05/03 11:18:00;;;;;;;;;;;18.30;99.90;;;;;;4971772;28;19918;-65
2023/05/03 11:20:26;;;;;;;;;;;18.40;99.90;;;;;;4969736;28;19926;-65
2023/05/03 11:22:52;;;;;;;;;;;18.30;99.90;;;;;;4968806;28;20332;-66
2023/05/03 11:25:17;;;;;;;;;;;18.20;99.90;;;;;;4960981;28;19929;-66
2023/05/03 11:27:45;;;;;;;;;;;18.30;99.90;;;;;;4969221;28;20379;-66
2023/05/03 11:30:12;;;;;;;;;;;18.40;99.90;;;;;;4969461;28;20422;-66
2023/05/03 11:32:38;;;;;;;;;;;18.40;99.90;;;;;;4970514;28;19953;-66
2023/05/03 11:35:05;;;;;;;;;;;18.50;99.90;;;;;;4975215;28;20339;-66
2023/05/03 11:37:31;;;;;;;;;;;18.40;99.90;;;;;;4966527;28;19914;-66
2023/05/03 11:39:57;;;;;;;;;;;18.40;99.90;;;;;;4963027;28;19966;-66
2023/05/03 11:42:24;;;;;;;;;;;18.50;99.90;;;;;;4966306;28;19918;-66
2023/05/03 11:44:51;;;;;;;;;;;18.50;99.90;;;;;;4960039;28;19918;-65
2023/05/03 11:47:17;;;;;;;;;;;18.50;99.90;;;;;;4967342;28;19922;-64
2023/05/03 11:49:51;;;;;;;;;;;18.50;99.90;;;;;;4966234;28;19918;-64
2023/05/03 11:52:24;;;;;;;;;;;18.60;99.90;;;;;;4967501;28;20429;-64
2023/05/03 11:54:50;;;;;;;;;;;18.60;99.90;;;;;;4961812;28;19929;-65
2023/05/03 11:57:15;;;;;;;;;;;18.50;99.90;;;;;;4972678;28;19934;-64
2023/05/03 11:59:41;;;;;;;;;;;18.50;99.90;;;;;;4964105;28;19931;-64
2023/05/03 12:02:08;;;;;;;;;;;18.50;99.90;;;;;;4958885;28;19918;-66
2023/05/03 12:04:35;;;;;;;;;;;18.50;99.90;;;;;;4959222;28;19966;-66
2023/05/03 12:07:02;;;;;;;;;;;18.50;99.90;;;;;;4963839;28;19918;-66
2023/05/03 12:09:27;;;;;;;;;;;18.40;99.90;;;;;;4964682;28;19918;-66
2023/05/03 12:11:53;;;;;;;;;;;18.50;99.90;;;;;;4954572;28;19992;-66
2023/05/03 12:14:19;;;;;;;;;;;18.50;99.90;;;;;;4954591;28;21044;-66
2023/05/03 12:16:47;;;;;;;;;;;18.50;99.90;;;;;;4956835;28;19969;-66
2023/05/03 12:19:22;;;;;;;;;;;18.60;99.90;;;;;;4965027;28;19969;-66
2023/05/03 12:21:47;;;;;;;;;;;18.60;99.90;;;;;;4972183;28;20005;-64
2023/05/03 12:24:17;;;;;;;;;;;18.70;99.90;;;;;;4967226;28;20417;-63
2023/05/03 12:26:46;;;;;;;;;;;18.60;99.90;;;;;;4964167;28;19922;-64
2023/05/03 12:29:11;;;;;;;;;;;18.50;99.90;;;;;;4965434;28;20003;-64
2023/05/03 12:31:37;;;;;;;;;;;18.50;99.90;;;;;;4964746;28;20378;-64
2023/05/03 12:34:03;;;;;;;;;;;18.50;99.90;;;;;;4968834;28;19922;-64
2023/05/03 12:36:31;;;;;;;;;;;18.50;99.90;;;;;;4967848;28;19918;-64
2023/05/03 12:38:57;;;;;;;;;;;18.50;99.90;;;;;;4963885;28;19913;-64
2023/05/03 12:41:26;;;;;;;;;;;18.50;99.90;;;;;;4970558;28;19925;-64
2023/05/03 12:43:52;;;;;;;;;;;18.50;99.90;;;;;;4968225;28;19924;-64
2023/05/03 12:46:17;;;;;;;;;;;18.60;99.90;;;;;;4956761;28;20530;-64
2023/05/03 12:48:43;;;;;;;;;;;18.60;99.90;;;;;;4953594;28;19941;-64
2023/05/03 12:51:08;;;;;;;;;;;18.50;99.90;;;;;;4957228;28;19944;-64
2023/05/03 12:53:34;;;;;;;;;;;18.50;99.90;;;;;;4961338;28;20401;-64
2023/05/03 12:56:00;;;;;;;;;;;18.50;99.90;;;;;;4965540;28;19922;-64
2023/05/03 12:58:25;;;;;;;;;;;18.50;99.90;;;;;;4952245;28;19949;-64
2023/05/03 13:00:51;;;;;;;;;;;18.50;99.90;;;;;;4945327;28;19922;-65
2023/05/03 13:03:17;;;;;;;;;;;18.60;99.90;;;;;;4959673;28;19920;-65
2023/05/03 13:05:42;;;;;;;;;;;18.50;99.90;;;;;;4959615;28;19918;-65
2023/05/03 13:08:09;;;;;;;;;;;18.60;99.90;;;;;;4955437;28;19926;-65
2023/05/03 13:10:36;;;;;;;;;;;18.60;99.90;;;;;;4957987;28;19918;-65
2023/05/03 13:13:02;;;;;;;;;;;18.70;99.90;;;;;;4958628;28;19938;-65
2023/05/03 13:15:28;;;;;;;;;;;18.90;99.90;;;;;;4950346;28;19964;-65
2023/05/03 13:17:54;;;;;;;;;;;18.90;99.90;;;;;;4959578;28;19922;-65
2023/05/03 13:20:20;;;;;;;;;;;19.00;99.90;;;;;;4969192;28;19961;-65
2023/05/03 13:22:47;;;;;;;;;;;18.90;99.90;;;;;;4969749;28;20799;-68
2023/05/03 13:25:12;;;;;;;;;;;18.90;99.90;;;;;;4972695;28;19918;-68
2023/05/03 13:27:38;;;;;;;;;;;18.80;99.90;;;;;;4965923;28;19921;-67
2023/05/03 13:30:03;;;;;;;;;;;18.80;99.90;;;;;;4966096;28;19918;-67
2023/05/03 13:32:29;;;;;;;;;;;18.80;99.90;;;;;;4963921;28;20502;-65
2023/05/03 13:34:55;;;;;;;;;;;18.90;99.90;;;;;;4966175;28;20720;-66
2023/05/03 13:37:20;;;;;;;;;;;19.00;99.90;;;;;;4961020;28;19929;-66
2023/05/03 13:39:46;;;;;;;;;;;19.00;99.90;;;;;;4961420;28;20376;-66
2023/05/03 13:42:11;;;;;;;;;;;19.10;99.90;;;;;;4968690;28;19918;-64
2023/05/03 13:44:39;;;;;;;;;;;19.10;99.90;;;;;;4966224;28;19921;-64
2023/05/03 13:47:05;;;;;;;;;;;19.10;99.90;;;;;;4955787;28;19922;-65
2023/05/03 13:49:31;;;;;;;;;;;19.30;99.90;;;;;;4954349;28;19921;-64
2023/05/03 13:51:56;;;;;;;;;;;19.40;99.90;;;;;;4963320;28;21209;-64
2023/05/03 13:54:22;;;;;;;;;;;19.30;99.90;;;;;;4960003;28;20042;-64
2023/05/03 13:56:47;;;;;;;;;;;19.40;99.90;;;;;;4968026;28;19925;-64
2023/05/03 13:59:13;;;;;;;;;;;19.40;99.90;;;;;;4969575;28;20043;-67
2023/05/03 14:01:39;;;;;;;;;;;19.40;99.90;;;;;;4959361;28;20386;-68
2023/05/03 14:04:05;;;;;;;;;;;19.30;99.90;;;;;;4967307;28;20396;-67
2023/05/03 14:06:31;;;;;;;;;;;19.30;99.90;;;;;;4971994;28;20000;-67
2023/05/03 14:08:56;;;;;;;;;;;19.30;99.90;;;;;;4966537;28;19918;-68
2023/05/03 14:11:23;;;;;;;;;;;19.30;99.90;;;;;;4970842;28;19993;-68
2023/05/03 14:13:50;;;;;;;;;;;19.40;99.90;;;;;;4963800;28;19976;-68